Time;durP1;ratioP1;P1;durP2;ratioP2;P2;SDS_P1;SDS_P2;PMS_P1;PMS_P2;Temp;Humidity;BMP_temperature;BMP_pressure;BME280_temperature;BME280_humidity;BME280_pressure;Samples;Min_cycle;Max_cycle;Signal;HPM_P1;HPM_P2
2022/03/08 04:01:12;;;;;;;1.30;1.20;;;14.90;47.20;;;;;;5608123;22;45770;-65
2022/03/08 04:03:37;;;;;;;1.35;1.13;;;14.90;47.20;;;;;;4967621;28;45604;-66
2022/03/08 04:06:03;;;;;;;1.92;1.50;;;14.90;47.30;;;;;;4991253;28;45378;-65
2022/03/08 04:08:29;;;;;;;2.22;1.40;;;14.80;47.40;;;;;;4992708;28;45132;-64
2022/03/08 04:10:54;;;;;;;1.35;1.25;;;14.80;47.40;;;;;;4973829;28;47123;-64
2022/03/08 04:13:20;;;;;;;1.10;1.00;;;14.80;47.30;;;;;;4972231;28;45566;-64
2022/03/08 04:15:46;;;;;;;1.42;1.30;;;14.80;47.30;;;;;;4977997;28;45595;-64
2022/03/08 04:18:12;;;;;;;1.30;1.20;;;14.80;47.30;;;;;;4975586;28;45634;-64
2022/03/08 04:20:37;;;;;;;2.00;1.50;;;14.80;47.40;;;;;;4989245;28;46176;-64
2022/03/08 04:23:03;;;;;;;1.48;1.35;;;14.80;47.30;;;;;;4991482;28;45562;-65
2022/03/08 04:25:30;;;;;;;1.35;1.10;;;14.80;47.40;;;;;;4957411;28;45479;-65
2022/03/08 04:27:55;;;;;;;1.40;1.10;;;14.80;47.30;;;;;;4992199;28;45233;-64
2022/03/08 04:30:21;;;;;;;1.83;1.40;;;14.80;47.30;;;;;;4977398;28;46943;-65
2022/03/08 04:32:46;;;;;;;1.50;1.40;;;14.80;47.30;;;;;;4977427;28;45168;-64
2022/03/08 04:35:13;;;;;;;1.65;1.23;;;14.70;47.30;;;;;;4983141;28;45447;-65
2022/03/08 04:37:39;;;;;;;1.80;1.50;;;14.70;47.40;;;;;;4990477;28;45166;-64
2022/03/08 04:40:05;;;;;;;1.67;1.20;;;14.70;47.30;;;;;;4974495;28;46109;-64
2022/03/08 04:42:31;;;;;;;1.35;1.20;;;14.70;47.30;;;;;;4974783;28;45537;-65
2022/03/08 04:44:57;;;;;;;1.88;1.40;;;14.70;47.30;;;;;;4989437;28;45302;-65
2022/03/08 04:47:22;;;;;;;1.50;1.40;;;14.60;47.30;;;;;;4957547;28;44857;-64
2022/03/08 04:49:48;;;;;;;1.40;1.30;;;14.60;47.40;;;;;;4975482;28;46033;-64
2022/03/08 04:52:13;;;;;;;1.55;1.23;;;14.70;47.30;;;;;;4990422;28;45352;-65
2022/03/08 04:54:39;;;;;;;1.70;1.45;;;14.60;47.30;;;;;;4971617;28;44973;-64
2022/03/08 04:57:05;;;;;;;1.60;1.40;;;14.60;47.40;;;;;;4969379;28;45200;-64
2022/03/08 04:59:30;;;;;;;1.20;1.10;;;14.60;47.50;;;;;;4971031;28;45271;-65
2022/03/08 05:01:56;;;;;;;1.90;1.52;;;14.60;47.40;;;;;;4985207;28;45574;-64
2022/03/08 05:04:22;;;;;;;1.77;1.50;;;14.60;47.40;;;;;;4973617;28;45283;-65
2022/03/08 05:06:48;;;;;;;1.23;1.13;;;14.60;47.40;;;;;;4992792;28;45397;-64
2022/03/08 05:09:13;;;;;;;1.10;1.00;;;14.60;47.40;;;;;;4962856;28;45601;-65
2022/03/08 05:11:39;;;;;;;1.50;1.35;;;14.50;47.40;;;;;;4972310;28;45215;-64
2022/03/08 05:14:05;;;;;;;1.58;1.20;;;14.50;47.30;;;;;;4972449;28;44775;-65
2022/03/08 05:16:30;;;;;;;1.40;1.08;;;14.60;47.40;;;;;;4974283;28;45370;-64
2022/03/08 05:18:57;;;;;;;1.52;1.20;;;14.50;47.40;;;;;;4989318;28;46441;-65
2022/03/08 05:21:22;;;;;;;2.00;1.58;;;14.50;47.40;;;;;;4971844;28;45512;-64
2022/03/08 05:23:48;;;;;;;1.40;1.30;;;14.50;47.50;;;;;;4975648;28;45492;-64
2022/03/08 05:26:14;;;;;;;1.27;1.17;;;14.40;47.40;;;;;;4976747;28;45020;-64
2022/03/08 05:28:42;;;;;;;1.50;1.30;;;14.50;47.50;;;;;;4991551;28;45964;-65
2022/03/08 05:31:11;;;;;;;1.27;1.10;;;14.50;47.40;;;;;;4968821;28;45168;-64
2022/03/08 05:33:36;;;;;;;1.30;1.20;;;14.50;47.50;;;;;;4970708;28;45830;-64
2022/03/08 05:36:03;;;;;;;1.75;1.40;;;14.40;47.40;;;;;;4972637;28;45605;-64
2022/03/08 05:38:28;;;;;;;1.77;1.23;;;14.40;47.50;;;;;;4973524;28;45929;-64
2022/03/08 05:40:54;;;;;;;1.75;1.38;;;14.40;47.40;;;;;;4971924;28;45215;-64
2022/03/08 05:43:19;;;;;;;1.42;1.17;;;14.40;47.40;;;;;;4990558;28;44927;-64
2022/03/08 05:45:45;;;;;;;1.58;1.42;;;14.40;47.50;;;;;;4955548;28;45298;-64
2022/03/08 05:48:10;;;;;;;1.45;1.35;;;14.40;47.50;;;;;;4989145;28;46341;-64
2022/03/08 05:50:36;;;;;;;1.30;1.20;;;14.30;47.50;;;;;;4974999;28;44863;-64
2022/03/08 05:53:02;;;;;;;1.52;1.40;;;14.30;47.50;;;;;;4972544;28;45674;-64
2022/03/08 05:55:27;;;;;;;1.88;1.52;;;14.30;47.60;;;;;;4971939;28;45093;-64
2022/03/08 05:57:53;;;;;;;1.45;1.35;;;14.30;47.60;;;;;;4974556;28;44946;-64
2022/03/08 06:00:19;;;;;;;1.50;1.40;;;14.20;47.50;;;;;;4975615;28;45987;-64
2022/03/08 06:02:44;;;;;;;1.70;1.27;;;14.30;47.60;;;;;;4972150;28;45094;-64
2022/03/08 06:05:10;;;;;;;1.33;1.17;;;14.30;47.40;;;;;;4975592;28;45509;-63
2022/03/08 06:07:36;;;;;;;1.60;1.50;;;14.30;47.40;;;;;;4993235;28;45226;-64
2022/03/08 06:10:02;;;;;;;1.48;1.38;;;14.30;47.30;;;;;;4980969;28;44807;-64
2022/03/08 06:12:27;;;;;;;1.50;1.25;;;14.30;47.30;;;;;;4978270;28;45273;-64
2022/03/08 06:14:53;;;;;;;2.33;1.55;;;14.30;47.30;;;;;;4979338;28;45738;-64
2022/03/08 06:17:19;;;;;;;2.33;1.35;;;14.30;47.30;;;;;;4978019;28;46140;-64
2022/03/08 06:19:44;;;;;;;1.58;1.40;;;14.30;47.40;;;;;;4977906;28;44802;-64
2022/03/08 06:22:10;;;;;;;2.13;1.30;;;14.20;47.50;;;;;;4979475;28;45125;-64
2022/03/08 06:24:35;;;;;;;1.52;1.40;;;14.20;47.40;;;;;;4978588;28;45239;-64
2022/03/08 06:27:01;;;;;;;1.42;1.27;;;14.20;47.80;;;;;;4974547;28;44940;-64
2022/03/08 06:29:26;;;;;;;1.90;1.67;;;14.20;47.50;;;;;;4989630;28;45292;-64
2022/03/08 06:31:52;;;;;;;1.50;1.25;;;14.20;47.40;;;;;;4970054;28;45545;-64
2022/03/08 06:34:18;;;;;;;2.05;1.60;;;14.20;47.50;;;;;;4981215;28;45285;-64
2022/03/08 06:36:43;;;;;;;1.65;1.40;;;14.20;47.50;;;;;;4978218;28;46356;-64
2022/03/08 06:39:09;;;;;;;1.73;1.55;;;14.10;47.50;;;;;;4980622;28;45234;-66
2022/03/08 06:41:34;;;;;;;1.58;1.48;;;14.10;47.50;;;;;;4994782;28;44822;-64
2022/03/08 06:44:00;;;;;;;1.50;1.40;;;14.10;47.50;;;;;;4979141;28;45444;-64
2022/03/08 06:46:26;;;;;;;1.35;1.25;;;14.20;47.50;;;;;;4961004;28;46903;-64
2022/03/08 06:48:52;;;;;;;1.92;1.48;;;14.20;47.50;;;;;;4974501;28;45270;-64
2022/03/08 06:51:17;;;;;;;1.58;1.48;;;14.10;47.50;;;;;;4964464;28;45500;-63
2022/03/08 06:53:43;;;;;;;1.38;1.20;;;14.10;47.50;;;;;;4994839;28;45174;-64
2022/03/08 06:56:08;;;;;;;2.17;1.40;;;14.10;47.40;;;;;;4994159;28;45491;-64
2022/03/08 06:58:34;;;;;;;1.90;1.58;;;14.10;47.40;;;;;;4992996;28;45190;-64
2022/03/08 07:00:59;;;;;;;;;;;14.20;47.50;;;;;;4991541;28;44776;-63
2022/03/08 07:03:25;;;;;;;2.00;1.30;;;14.10;47.50;;;;;;4961179;28;46132;-64
2022/03/08 07:05:51;;;;;;;2.60;1.42;;;14.20;47.30;;;;;;4977649;28;45518;-64
2022/03/08 07:08:16;;;;;;;3.38;1.50;;;14.30;47.00;;;;;;4977145;28;45196;-63
2022/03/08 07:10:42;;;;;;;1.67;1.38;;;14.40;47.50;;;;;;4977489;28;45180;-64
2022/03/08 07:13:07;;;;;;;1.75;1.45;;;14.50;46.60;;;;;;4978715;28;45634;-64
2022/03/08 07:15:33;;;;;;;1.42;1.20;;;14.70;46.40;;;;;;4976486;28;44947;-65
2022/03/08 07:17:59;;;;;;;3.17;1.13;;;14.80;46.30;;;;;;4978566;28;45210;-64
2022/03/08 07:20:24;;;;;;;3.10;1.30;;;14.90;46.00;;;;;;4975882;28;45639;-63
2022/03/08 07:22:50;;;;;;;1.52;1.15;;;15.00;45.80;;;;;;4976162;28;45230;-63
2022/03/08 07:25:16;;;;;;;1.45;1.27;;;15.20;45.80;;;;;;4958569;28;46959;-63
2022/03/08 07:27:42;;;;;;;1.45;1.30;;;15.30;45.70;;;;;;4975851;28;45631;-63
2022/03/08 07:30:08;;;;;;;1.30;1.20;;;15.40;45.50;;;;;;4975716;28;44696;-63
2022/03/08 07:32:34;;;;;;;1.60;1.27;;;15.50;45.40;;;;;;4957582;28;45552;-63
2022/03/08 07:34:59;;;;;;;1.55;1.10;;;15.60;45.20;;;;;;4994324;28;45401;-65
2022/03/08 07:37:25;;;;;;;1.33;1.17;;;15.80;45.20;;;;;;4980853;28;45233;-64
2022/03/08 07:39:51;;;;;;;3.72;1.00;;;15.90;45.10;;;;;;4977581;28;45412;-64
2022/03/08 07:42:16;;;;;;;1.13;1.02;;;16.00;44.90;;;;;;4977017;28;45558;-63
2022/03/08 07:44:42;;;;;;;1.00;0.90;;;16.10;44.90;;;;;;4987659;28;46054;-63
2022/03/08 07:47:08;;;;;;;1.23;1.05;;;16.20;44.70;;;;;;4978781;28;44617;-63
2022/03/08 07:49:34;;;;;;;1.33;1.10;;;16.30;44.70;;;;;;4955693;28;45242;-63
2022/03/08 07:52:00;;;;;;;0.82;0.82;;;16.50;44.60;;;;;;4973730;28;45028;-63
2022/03/08 07:54:26;;;;;;;1.00;0.98;;;16.60;44.50;;;;;;4976431;28;46252;-63
2022/03/08 07:56:51;;;;;;;1.02;0.93;;;16.70;44.40;;;;;;4976100;28;44706;-63
2022/03/08 07:59:17;;;;;;;1.02;0.90;;;16.80;44.30;;;;;;4968039;28;45559;-64
2022/03/08 08:01:42;;;;;;;3.05;1.00;;;16.90;44.30;;;;;;4985592;28;44830;-63
2022/03/08 08:04:08;;;;;;;0.80;0.80;;;17.10;44.20;;;;;;4982809;28;45245;-63
2022/03/08 08:06:34;;;;;;;1.02;0.85;;;17.20;44.10;;;;;;4991870;28;45114;-63
2022/03/08 08:09:00;;;;;;;0.88;0.80;;;17.30;44.00;;;;;;4991956;28;45522;-63
2022/03/08 08:11:25;;;;;;;0.80;0.80;;;17.40;43.90;;;;;;4992024;28;45553;-63
2022/03/08 08:13:52;;;;;;;0.80;0.80;;;17.50;43.80;;;;;;4971066;28;46026;-64
2022/03/08 08:16:18;;;;;;;1.55;0.95;;;17.60;43.80;;;;;;4975160;28;44972;-64
2022/03/08 08:18:44;;;;;;;1.50;0.93;;;17.70;43.70;;;;;;4976815;28;44924;-65
2022/03/08 08:21:09;;;;;;;0.60;0.60;;;17.80;43.60;;;;;;4978619;28;45207;-62
2022/03/08 08:23:35;;;;;;;0.90;0.90;;;17.90;43.60;;;;;;4979924;28;45480;-63
2022/03/08 08:26:01;;;;;;;0.90;0.80;;;18.10;43.50;;;;;;4977971;28;45585;-63
2022/03/08 08:28:26;;;;;;;1.98;0.93;;;18.20;43.40;;;;;;4984469;28;44915;-63
2022/03/08 08:30:52;;;;;;;0.90;0.80;;;18.30;43.30;;;;;;4990572;28;45209;-62
2022/03/08 08:33:17;;;;;;;0.80;0.70;;;18.40;43.30;;;;;;4975956;28;45962;-63
2022/03/08 08:35:43;;;;;;;0.68;0.65;;;18.50;43.20;;;;;;4991507;28;45220;-63
2022/03/08 08:38:09;;;;;;;3.70;0.65;;;18.60;43.10;;;;;;4991471;28;45223;-63
2022/03/08 08:40:35;;;;;;;0.90;0.70;;;18.70;43.00;;;;;;4992467;28;45599;-62
2022/03/08 08:43:01;;;;;;;0.70;0.65;;;18.80;43.00;;;;;;4978788;28;45611;-63
2022/03/08 08:45:27;;;;;;;0.85;0.68;;;18.90;42.90;;;;;;4974996;28;45290;-63
2022/03/08 08:47:53;;;;;;;0.95;0.80;;;19.00;42.80;;;;;;4992726;28;44991;-63
2022/03/08 08:50:18;;;;;;;0.73;0.60;;;19.10;42.80;;;;;;4975595;28;45338;-64
2022/03/08 08:52:44;;;;;;;2.85;0.65;;;19.20;42.70;;;;;;4985933;28;45414;-63
2022/03/08 08:55:10;;;;;;;1.10;0.80;;;19.30;42.60;;;;;;4983445;28;45317;-64
2022/03/08 08:57:36;;;;;;;0.70;0.70;;;19.40;42.60;;;;;;4975691;28;45033;-63
2022/03/08 09:00:01;;;;;;;0.70;0.60;;;19.50;42.50;;;;;;4972266;28;45685;-61
2022/03/08 09:02:27;;;;;;;0.63;0.60;;;19.60;42.60;;;;;;4993538;28;46941;-61
2022/03/08 09:04:52;;;;;;;0.50;0.50;;;19.60;42.60;;;;;;4977248;28;44714;-63
2022/03/08 09:07:18;;;;;;;1.23;0.70;;;19.70;42.60;;;;;;4976153;28;45187;-63
2022/03/08 09:09:47;;;;;;;1.35;0.70;;;19.80;42.40;;;;;;4976476;28;45453;-62
2022/03/08 09:12:12;;;;;;;2.25;0.80;;;19.90;42.30;;;;;;4987101;28;46133;-63
2022/03/08 09:14:38;;;;;;;0.63;0.52;;;20.00;42.20;;;;;;4973944;28;45218;-63
2022/03/08 09:17:04;;;;;;;0.70;0.70;;;20.10;42.10;;;;;;4970568;28;45841;-63
2022/03/08 09:19:29;;;;;;;0.70;0.70;;;20.30;42.10;;;;;;4975266;28;45574;-64
2022/03/08 09:21:55;;;;;;;0.60;0.60;;;20.30;42.00;;;;;;4990826;28;46123;-65
2022/03/08 09:24:20;;;;;;;0.80;0.60;;;20.40;41.90;;;;;;4976599;28;45556;-63
2022/03/08 09:26:46;;;;;;;1.35;0.60;;;20.50;41.80;;;;;;4976484;28;45345;-63
2022/03/08 09:29:11;;;;;;;0.60;0.52;;;20.60;41.80;;;;;;4986266;28;45527;-66
2022/03/08 09:31:37;;;;;;;0.65;0.65;;;20.70;41.80;;;;;;4991071;28;45868;-65
2022/03/08 09:34:03;;;;;;;0.50;0.50;;;20.80;41.70;;;;;;5003209;28;44657;-64
2022/03/08 09:36:28;;;;;;;0.70;0.60;;;20.80;41.60;;;;;;4981200;28;45195;-65
2022/03/08 09:38:54;;;;;;;1.17;0.60;;;21.00;41.60;;;;;;4985162;28;45615;-63
2022/03/08 09:41:20;;;;;;;0.50;0.50;;;21.00;41.60;;;;;;4985507;28;45220;-64
2022/03/08 09:43:45;;;;;;;1.15;0.60;;;21.10;41.50;;;;;;4978268;28;45516;-64
2022/03/08 09:46:11;;;;;;;1.02;0.50;;;21.20;41.50;;;;;;4977521;28;45173;-64
2022/03/08 09:48:37;;;;;;;0.50;0.50;;;21.30;41.50;;;;;;4992033;28;44881;-65
2022/03/08 09:51:03;;;;;;;0.70;0.70;;;21.40;41.40;;;;;;4966331;28;45239;-63
2022/03/08 09:53:32;;;;;;;0.65;0.55;;;21.40;41.30;;;;;;4960827;28;45429;-63
2022/03/08 09:55:58;;;;;;;1.40;0.40;;;21.50;41.30;;;;;;4980535;28;44963;-64
2022/03/08 09:58:24;;;;;;;0.52;0.47;;;21.60;41.20;;;;;;4979802;28;45384;-65
2022/03/08 10:00:51;;;;;;;0.52;0.50;;;21.70;41.20;;;;;;4977593;28;46563;-63
2022/03/08 10:03:17;;;;;;;3.10;0.70;;;21.70;41.10;;;;;;4979434;28;45325;-65
2022/03/08 10:05:43;;;;;;;0.57;0.50;;;21.80;41.00;;;;;;4984240;28;45333;-65
2022/03/08 10:08:21;;;;;;;0.70;0.40;;;21.90;41.00;;;;;;4978042;28;45458;-64
2022/03/08 10:10:58;;;;;;;4.15;0.50;;;22.00;40.70;;;;;;4989000;28;46103;-63
2022/03/08 10:13:33;;;;;;;0.52;0.47;;;22.10;40.90;;;;;;4993193;28;45418;-65
2022/03/08 10:16:11;;;;;;;0.57;0.57;;;22.20;40.80;;;;;;4962616;28;44980;-64
2022/03/08 10:18:45;;;;;;;1.40;0.30;;;22.20;40.60;;;;;;4994468;28;45457;-64
2022/03/08 10:21:25;;;;;;;0.40;0.40;;;22.30;40.60;;;;;;4976925;28;45887;-66
2022/03/08 10:23:52;;;;;;;0.60;0.50;;;22.40;40.40;;;;;;4977284;28;45540;-63
2022/03/08 10:26:18;;;;;;;0.90;0.68;;;22.50;40.70;;;;;;4977170;28;45317;-64
2022/03/08 10:28:48;;;;;;;0.45;0.40;;;22.50;40.60;;;;;;4978739;28;45499;-64
2022/03/08 10:31:14;;;;;;;0.47;0.40;;;22.60;40.60;;;;;;4977774;28;46809;-64
2022/03/08 10:33:40;;;;;;;0.55;0.40;;;22.70;40.60;;;;;;4978419;28;45263;-66
2022/03/08 10:36:12;;;;;;;0.52;0.32;;;22.70;40.50;;;;;;4994923;28;45187;-64
2022/03/08 10:38:40;;;;;;;0.28;0.28;;;22.80;40.40;;;;;;4979341;28;45297;-64
2022/03/08 10:41:18;;;;;;;1.45;0.30;;;22.90;40.50;;;;;;4992915;28;46177;-63
2022/03/08 10:43:50;;;;;;;0.50;0.30;;;22.90;40.20;;;;;;4992737;28;45271;-64
2022/03/08 10:46:16;;;;;;;0.38;0.38;;;23.00;40.20;;;;;;4979164;28;45159;-63
2022/03/08 10:48:42;;;;;;;0.40;0.40;;;23.10;40.40;;;;;;4977470;28;45714;-64
2022/03/08 10:51:14;;;;;;;0.38;0.38;;;23.10;40.40;;;;;;4983198;28;45508;-62
2022/03/08 10:53:40;;;;;;;0.50;0.50;;;23.20;40.30;;;;;;4988205;28;45422;-64
2022/03/08 10:56:05;;;;;;;0.32;0.30;;;23.20;40.20;;;;;;4979087;28;45618;-63
2022/03/08 10:58:31;;;;;;;1.05;0.40;;;23.30;40.20;;;;;;4978886;28;45232;-64
2022/03/08 11:00:58;;;;;;;1.15;0.38;;;23.40;40.20;;;;;;4988509;28;45278;-64
2022/03/08 11:03:25;;;;;;;0.35;0.28;;;23.40;40.20;;;;;;4976900;28;44910;-60
2022/03/08 11:05:53;;;;;;;0.95;0.47;;;23.50;40.10;;;;;;4980640;28;46259;-65
2022/03/08 11:08:19;;;;;;;0.47;0.30;;;23.60;40.00;;;;;;4977528;28;45297;-65
2022/03/08 11:10:45;;;;;;;0.28;0.28;;;23.60;40.00;;;;;;4979642;28;46447;-65
2022/03/08 11:13:11;;;;;;;0.40;0.40;;;23.70;40.00;;;;;;4979212;28;45283;-65
2022/03/08 11:15:41;;;;;;;0.75;0.40;;;23.80;40.00;;;;;;4981306;28;45161;-66
2022/03/08 11:18:10;;;;;;;1.00;0.40;;;23.80;39.80;;;;;;4981416;28;45669;-64
2022/03/08 11:20:36;;;;;;;0.32;0.30;;;23.90;39.90;;;;;;4980432;28;45744;-64
2022/03/08 11:23:02;;;;;;;0.32;0.32;;;23.90;39.90;;;;;;4981282;28;45576;-64
2022/03/08 11:25:32;;;;;;;1.20;0.40;;;24.00;40.50;;;;;;4980803;28;45184;-65
2022/03/08 11:27:59;;;;;;;0.30;0.30;;;24.00;39.80;;;;;;4980894;28;45302;-65
2022/03/08 11:30:26;;;;;;;0.30;0.30;;;24.10;39.80;;;;;;5003833;28;45436;-65
2022/03/08 11:33:08;;;;;;;0.52;0.30;;;24.10;39.70;;;;;;4979364;28;45484;-64
2022/03/08 11:35:41;;;;;;;0.52;0.38;;;24.20;39.50;;;;;;4980939;28;45188;-65
2022/03/08 11:38:12;;;;;;;;;;;24.20;39.50;;;;;;4960808;28;45187;-65
2022/03/08 11:40:37;;;;;;;0.20;0.20;;;24.30;39.30;;;;;;4981109;28;45370;-65
2022/03/08 11:43:06;;;;;;;0.20;0.20;;;24.30;39.70;;;;;;4983722;28;45281;-65
2022/03/08 11:45:32;;;;;;;0.80;0.30;;;24.40;39.60;;;;;;4979100;28;45497;-64
2022/03/08 11:47:58;;;;;;;0.63;0.32;;;24.40;39.60;;;;;;4977931;28;45181;-66
2022/03/08 11:50:35;;;;;;;1.52;0.30;;;24.50;39.60;;;;;;4979123;28;46898;-65
2022/03/08 11:53:07;;;;;;;0.22;0.22;;;24.50;39.40;;;;;;4980617;28;44800;-65
2022/03/08 11:55:33;;;;;;;0.28;0.28;;;24.50;39.50;;;;;;4978269;28;45387;-65
2022/03/08 11:58:01;;;;;;;0.50;0.25;;;24.60;39.50;;;;;;4981524;28;44954;-65
2022/03/08 12:00:30;;;;;;;0.45;0.20;;;24.60;39.40;;;;;;4985934;28;45297;-65
2022/03/08 12:02:58;;;;;;;1.08;0.50;;;24.60;39.30;;;;;;4975774;28;45401;-65
2022/03/08 12:05:44;;;;;;;1.05;0.40;;;24.70;39.30;;;;;;4977752;28;45131;-65
2022/03/08 12:08:22;;;;;;;0.30;0.30;;;24.70;38.90;;;;;;4988788;28;45152;-65
2022/03/08 12:10:57;;;;;;;0.25;0.25;;;24.80;38.90;;;;;;4980598;28;45082;-65
2022/03/08 12:13:26;;;;;;;0.30;0.30;;;24.80;39.20;;;;;;4976849;28;45563;-65
2022/03/08 12:16:10;;;;;;;0.55;0.30;;;24.80;39.20;;;;;;4976864;28;45333;-66
2022/03/08 12:18:36;;;;;;;0.63;0.40;;;24.80;38.80;;;;;;4978855;28;45179;-64
2022/03/08 12:21:17;;;;;;;0.40;0.35;;;24.80;39.20;;;;;;4974253;28;45597;-63
2022/03/08 12:23:49;;;;;;;0.95;0.80;;;24.80;38.80;;;;;;4990419;28;45425;-65
2022/03/08 12:26:37;;;;;;;0.90;0.68;;;24.70;35.60;;;;;;4978656;28;45383;-66
2022/03/08 12:29:13;;;;;;;1.75;0.55;;;24.50;35.00;;;;;;4978111;28;45194;-66
2022/03/08 12:31:57;;;;;;;0.80;0.45;;;24.60;37.70;;;;;;4975713;28;46300;-66
2022/03/08 12:34:39;;;;;;;2.78;0.47;;;24.70;37.20;;;;;;4976521;28;45276;-66
2022/03/08 12:37:22;;;;;;;1.30;0.40;;;24.70;37.10;;;;;;4978668;28;45243;-66
2022/03/08 12:39:48;;;;;;;0.65;0.45;;;24.80;37.10;;;;;;4976230;28;45543;-66
2022/03/08 12:42:30;;;;;;;2.63;0.70;;;24.80;37.50;;;;;;4976383;28;45333;-65
2022/03/08 12:44:58;;;;;;;1.05;0.50;;;24.90;37.20;;;;;;4975818;28;45670;-65
2022/03/08 12:47:25;;;;;;;0.65;0.50;;;24.90;37.20;;;;;;4976050;28;44746;-65
2022/03/08 12:49:51;;;;;;;2.05;0.32;;;25.00;37.40;;;;;;4977508;28;44945;-66
2022/03/08 12:52:17;;;;;;;2.08;0.43;;;25.00;37.40;;;;;;4990780;28;46328;-66
2022/03/08 12:54:43;;;;;;;1.05;0.50;;;25.00;37.40;;;;;;4975939;28;45349;-64
2022/03/08 12:57:13;;;;;;;1.60;0.50;;;25.00;37.40;;;;;;4977412;28;45383;-63
2022/03/08 12:59:47;;;;;;;1.63;0.47;;;25.10;37.30;;;;;;4971844;28;45521;-64
2022/03/08 13:02:12;;;;;;;0.85;0.43;;;25.10;37.20;;;;;;4974956;28;45011;-64
2022/03/08 13:04:38;;;;;;;0.93;0.57;;;25.10;37.40;;;;;;4969043;28;44870;-63
2022/03/08 13:07:30;;;;;;;0.75;0.50;;;25.10;37.40;;;;;;4993954;28;45184;-65
2022/03/08 13:09:58;;;;;;;1.15;0.30;;;25.20;36.90;;;;;;4979629;28;45210;-65
2022/03/08 13:12:28;;;;;;;2.55;0.40;;;25.20;37.50;;;;;;4997044;28;45472;-65
2022/03/08 13:15:08;;;;;;;1.77;0.40;;;25.20;37.30;;;;;;4979559;28;45294;-65
2022/03/08 13:17:34;;;;;;;0.98;0.40;;;25.30;37.20;;;;;;4982960;28;45197;-64
2022/03/08 13:20:00;;;;;;;4.05;0.45;;;25.30;37.50;;;;;;4985106;28;45361;-65
2022/03/08 13:22:25;;;;;;;2.65;0.50;;;25.30;37.50;;;;;;4985127;28;47093;-66
2022/03/08 13:25:10;;;;;;;0.50;0.30;;;25.30;37.50;;;;;;4981328;28;45215;-65
2022/03/08 13:27:54;;;;;;;0.47;0.30;;;25.40;37.20;;;;;;4981571;28;45177;-64
2022/03/08 13:30:28;;;;;;;0.88;0.43;;;25.30;37.20;;;;;;4981247;28;45230;-64
2022/03/08 13:33:15;;;;;;;0.30;0.30;;;25.40;37.50;;;;;;4980173;28;45185;-63
2022/03/08 13:36:01;;;;;;;1.15;0.28;;;25.40;37.20;;;;;;4973028;28;45375;-65
2022/03/08 13:38:35;;;;;;;0.55;0.20;;;25.40;37.20;;;;;;4976826;28;45545;-64
2022/03/08 13:41:03;;;;;;;0.73;0.55;;;25.40;37.40;;;;;;4997178;28;44863;-65
2022/03/08 13:43:29;;;;;;;1.92;0.30;;;25.40;37.60;;;;;;4976564;28;45325;-64
2022/03/08 13:45:55;;;;;;;0.80;0.40;;;25.40;37.60;;;;;;4980406;28;46329;-65
2022/03/08 13:48:25;;;;;;;1.40;0.50;;;25.40;38.30;;;;;;4982293;28;45394;-64
2022/03/08 13:50:51;;;;;;;0.40;0.38;;;25.50;37.60;;;;;;4962051;28;45204;-65
2022/03/08 13:53:16;;;;;;;2.00;0.35;;;25.50;37.70;;;;;;4979729;28;45365;-64
2022/03/08 13:55:42;;;;;;;0.65;0.35;;;25.50;37.70;;;;;;4979443;28;45372;-66
2022/03/08 13:58:16;;;;;;;0.45;0.40;;;25.50;37.80;;;;;;4981253;28;44633;-65
2022/03/08 14:00:42;;;;;;;1.05;0.22;;;25.50;37.60;;;;;;4992872;28;45047;-65
2022/03/08 14:03:09;;;;;;;0.63;0.40;;;25.50;37.70;;;;;;4983277;28;45037;-64
2022/03/08 14:06:04;;;;;;;0.95;0.30;;;25.50;37.80;;;;;;4981368;28;45240;-65
2022/03/08 14:08:34;;;;;;;0.68;0.52;;;25.60;37.50;;;;;;4976458;28;45232;-64
2022/03/08 14:11:08;;;;;;;1.55;0.47;;;25.60;37.80;;;;;;4981978;28;45566;-65
2022/03/08 14:13:45;;;;;;;0.30;0.30;;;25.60;37.70;;;;;;4980637;28;45270;-65
2022/03/08 14:16:11;;;;;;;1.00;0.30;;;25.60;37.80;;;;;;4978001;28;45273;-65
2022/03/08 14:18:48;;;;;;;1.80;0.40;;;25.60;37.90;;;;;;4972840;28;44722;-63
2022/03/08 14:21:23;;;;;;;0.38;0.38;;;25.60;37.70;;;;;;4978436;28;45351;-65
2022/03/08 14:23:48;;;;;;;1.05;0.30;;;25.60;37.90;;;;;;4996754;28;46875;-66
2022/03/08 14:26:16;;;;;;;2.58;0.70;;;25.60;38.00;;;;;;4972449;28;45098;-65
2022/03/08 14:28:51;;;;;;;0.30;0.30;;;25.70;38.10;;;;;;4978312;28;45488;-65
2022/03/08 14:31:22;;;;;;;1.27;0.40;;;25.70;38.00;;;;;;4967911;28;45436;-66
2022/03/08 14:34:07;;;;;;;0.50;0.40;;;25.80;38.00;;;;;;4985661;28;46051;-64
2022/03/08 14:36:38;;;;;;;0.93;0.35;;;25.80;37.80;;;;;;4973385;28;45085;-71
2022/03/08 14:39:14;;;;;;;0.28;0.22;;;25.80;38.00;;;;;;4973766;28;45543;-66
2022/03/08 14:41:52;;;;;;;0.40;0.30;;;25.90;37.80;;;;;;4977242;28;45566;-65
2022/03/08 14:44:17;;;;;;;0.93;0.30;;;25.80;38.00;;;;;;4975379;28;46150;-66
2022/03/08 14:46:43;;;;;;;0.75;0.57;;;25.90;38.10;;;;;;4977372;28;45041;-65
2022/03/08 14:49:09;;;;;;;0.30;0.30;;;25.90;38.00;;;;;;4975960;28;45243;-65
2022/03/08 14:51:34;;;;;;;0.85;0.40;;;25.90;38.00;;;;;;4979384;28;44982;-66
2022/03/08 14:54:03;;;;;;;1.90;0.30;;;26.00;38.00;;;;;;4988283;28;45842;-65
2022/03/08 14:56:29;;;;;;;0.20;0.20;;;26.00;37.90;;;;;;4985533;28;45123;-65
2022/03/08 14:58:54;;;;;;;1.67;0.40;;;26.00;38.00;;;;;;4974796;28;45270;-71
2022/03/08 15:01:21;;;;;;;0.47;0.30;;;26.10;37.90;;;;;;4973681;28;44805;-66
2022/03/08 15:03:47;;;;;;;0.40;0.30;;;26.10;37.90;;;;;;4973602;28;46942;-65
2022/03/08 15:06:12;;;;;;;1.67;0.50;;;26.10;37.90;;;;;;4975695;28;45439;-65
2022/03/08 15:08:38;;;;;;;0.30;0.30;;;26.10;38.00;;;;;;4975464;28;45389;-65
2022/03/08 15:11:04;;;;;;;0.85;0.30;;;26.10;38.00;;;;;;4943704;28;45172;-66
2022/03/08 15:13:30;;;;;;;0.40;0.40;;;26.10;37.90;;;;;;4955580;28;45965;-68
2022/03/08 15:15:56;;;;;;;0.38;0.30;;;26.10;37.90;;;;;;4976672;28;44996;-65
2022/03/08 15:18:21;;;;;;;0.85;0.40;;;26.10;38.10;;;;;;4974472;28;46059;-66
2022/03/08 15:20:47;;;;;;;0.98;0.35;;;26.20;38.10;;;;;;4986952;28;45118;-64
2022/03/08 15:23:12;;;;;;;0.20;0.20;;;26.20;38.00;;;;;;4973617;28;46155;-64
2022/03/08 15:25:38;;;;;;;0.40;0.30;;;26.20;38.40;;;;;;4975316;28;45343;-64
2022/03/08 15:28:04;;;;;;;0.50;0.40;;;26.20;38.10;;;;;;4974950;28;45207;-65
2022/03/08 15:30:30;;;;;;;0.70;0.30;;;26.20;37.90;;;;;;4969360;28;45275;-64
2022/03/08 15:32:56;;;;;;;0.45;0.30;;;26.30;38.10;;;;;;4973687;28;45836;-64
2022/03/08 15:35:22;;;;;;;;;;;26.20;38.00;;;;;;4973303;28;45092;-65
2022/03/08 15:37:47;;;;;;;;;;;26.20;37.60;;;;;;4970623;28;45259;-64
2022/03/08 15:40:13;;;;;;;;;;;26.20;37.60;;;;;;4975399;28;45239;-65
2022/03/08 15:42:38;;;;;;;;;;;26.20;37.70;;;;;;4977318;28;45484;-67
2022/03/08 15:45:05;;;;;;;;;;;26.20;37.70;;;;;;4974308;28;45301;-63
2022/03/08 15:47:31;;;;;;;;;;;26.20;37.70;;;;;;4973678;28;45174;-65
2022/03/08 15:49:57;;;;;;;;;;;26.20;37.80;;;;;;4974683;28;44864;-66
2022/03/08 15:52:22;;;;;;;;;;;26.30;37.70;;;;;;4972242;28;46898;-63
2022/03/08 15:54:48;;;;;;;;;;;26.30;37.90;;;;;;4974053;28;45336;-64
2022/03/08 15:57:14;;;;;;;;;;;26.30;37.80;;;;;;4975172;28;44711;-66
2022/03/08 15:59:41;;;;;;;0.38;0.20;;;26.30;37.70;;;;;;4975060;28;45242;-63
2022/03/08 16:02:07;;;;;;;0.50;0.40;;;26.30;38.00;;;;;;4976972;28;47115;-64
2022/03/08 16:04:34;;;;;;;0.20;0.20;;;26.30;38.00;;;;;;4970608;28;45598;-65
2022/03/08 16:07:00;;;;;;;1.20;0.38;;;26.30;38.10;;;;;;4968147;28;45306;-64
2022/03/08 16:09:26;;;;;;;0.63;0.40;;;26.40;38.10;;;;;;4973586;28;45291;-64
2022/03/08 16:11:51;;;;;;;1.08;0.35;;;26.40;38.00;;;;;;4973364;28;45892;-63
2022/03/08 16:14:17;;;;;;;0.28;0.20;;;26.40;38.10;;;;;;4976154;28;44659;-63
2022/03/08 16:16:43;;;;;;;0.63;0.32;;;26.40;38.00;;;;;;4967723;28;45417;-63
2022/03/08 16:19:08;;;;;;;0.50;0.30;;;26.30;38.20;;;;;;4954402;28;45259;-64
2022/03/08 16:21:34;;;;;;;1.92;0.35;;;26.20;38.30;;;;;;4968267;28;46627;-64
2022/03/08 16:24:00;;;;;;;3.50;0.50;;;26.10;38.40;;;;;;4948492;28;45302;-64
2022/03/08 16:26:26;;;;;;;2.67;0.40;;;26.00;38.40;;;;;;4980338;28;45662;-64
2022/03/08 16:28:52;;;;;;;0.45;0.30;;;25.90;38.50;;;;;;4967895;28;45608;-64
2022/03/08 16:31:19;;;;;;;1.38;0.30;;;25.80;38.50;;;;;;4962951;28;45391;-64
2022/03/08 16:33:44;;;;;;;0.30;0.20;;;25.70;38.60;;;;;;4964595;28;45586;-64
2022/03/08 16:36:10;;;;;;;0.30;0.20;;;25.60;38.70;;;;;;4966946;28;45481;-63
2022/03/08 16:38:36;;;;;;;0.30;0.30;;;25.50;38.80;;;;;;4965706;28;45548;-64
2022/03/08 16:41:02;;;;;;;0.60;0.32;;;25.40;39.00;;;;;;4966777;28;45941;-64
2022/03/08 16:43:27;;;;;;;0.70;0.30;;;25.30;39.20;;;;;;4964214;28;45409;-63
2022/03/08 16:45:53;;;;;;;1.10;0.43;;;25.20;39.20;;;;;;4968577;28;45400;-63
2022/03/08 16:48:18;;;;;;;0.45;0.30;;;25.10;39.30;;;;;;4978676;28;45664;-63
2022/03/08 16:50:44;;;;;;;0.50;0.40;;;25.00;39.30;;;;;;4965385;28;45675;-63
2022/03/08 16:53:10;;;;;;;0.80;0.30;;;24.90;39.50;;;;;;4975491;28;45298;-64